Terminal Aerodrome Forecast
Issued by NWS

Home | Current Version | Previous Version | Text Only | Print | Product List | Glossary Off
Versions: 1 2 3 4 5 6 7 8 9 10 11 12 13 14 15 16 17 18 19 20 21 22 23 24 25 26 27 28 29 30 31 32 33 34 35 36 37 38 39 40 41 42 43 44 45 46 47 48 49 50

000
FTUS43 KLOT 160852 AAB
TAFGYY
TAF AMD
KGYY 160852Z 1609/1706 11009KT 6SM -SHRA BR OVC023
      TEMPO 1609/1612 4SM -SHRA BR OVC008
     FM161200 10007KT 5SM BR VCSH OVC010
      TEMPO 1612/1616 4SM BR OVC007
     FM161600 08007KT P6SM BKN015
     FM162000 03008KT P6SM SCT025 BKN045
     FM170200 VRB03KT P6SM SCT250=

USA.gov is the U.S. government's official web portal to all federal, state and local government web resources and services.